sensor_id;sensor_type;location;lat;lon;timestamp;pressure;altitude;pressure_sealevel;temperature;humidity
30516;BME280;17297;54.022;10.760;2023-02-19T00:01:26;101366.47;;;7.38;69.26
30516;BME280;17297;54.022;10.760;2023-02-19T00:03:57;101378.06;;;7.38;69.22
30516;BME280;17297;54.022;10.760;2023-02-19T00:06:24;101384.25;;;7.39;69.16
30516;BME280;17297;54.022;10.760;2023-02-19T00:08:50;101386.91;;;7.39;69.04
30516;BME280;17297;54.022;10.760;2023-02-19T00:11:27;101390.44;;;7.39;69.21
30516;BME280;17297;54.022;10.760;2023-02-19T00:13:54;101388.59;;;7.40;69.11
30516;BME280;17297;54.022;10.760;2023-02-19T00:16:21;101386.75;;;7.40;69.21
30516;BME280;17297;54.022;10.760;2023-02-19T00:18:47;101384.06;;;7.40;69.23
30516;BME280;17297;54.022;10.760;2023-02-19T00:21:13;101387.56;;;7.41;69.13
30516;BME280;17297;54.022;10.760;2023-02-19T00:23:39;101376.88;;;7.41;69.26
30516;BME280;17297;54.022;10.760;2023-02-19T00:26:06;101382.22;;;7.41;69.22
30516;BME280;17297;54.022;10.760;2023-02-19T00:28:32;101388.44;;;7.42;69.08
30516;BME280;17297;54.022;10.760;2023-02-19T00:31:29;101382.22;;;7.41;69.26
30516;BME280;17297;54.022;10.760;2023-02-19T00:33:56;101386.59;;;7.42;69.22
30516;BME280;17297;54.022;10.760;2023-02-19T00:36:22;101391.13;;;7.42;69.23
30516;BME280;17297;54.022;10.760;2023-02-19T00:38:49;101389.28;;;7.42;69.38
30516;BME280;17297;54.022;10.760;2023-02-19T00:41:18;101386.59;;;7.42;69.13
30516;BME280;17297;54.022;10.760;2023-02-19T00:43:58;101393.81;;;7.42;69.17
30516;BME280;17297;54.022;10.760;2023-02-19T00:48:55;101393.81;;;7.42;69.15
30516;BME280;17297;54.022;10.760;2023-02-19T00:51:23;101395.59;;;7.41;69.23
30516;BME280;17297;54.022;10.760;2023-02-19T00:53:49;101389.41;;;7.40;69.21
30516;BME280;17297;54.022;10.760;2023-02-19T00:56:15;101389.41;;;7.40;69.20
30516;BME280;17297;54.022;10.760;2023-02-19T00:58:40;101393.94;;;7.40;69.34
30516;BME280;17297;54.022;10.760;2023-02-19T01:01:09;101399.28;;;7.40;69.21
30516;BME280;17297;54.022;10.760;2023-02-19T01:03:35;101396.63;;;7.40;69.33
30516;BME280;17297;54.022;10.760;2023-02-19T01:06:02;101400.13;;;7.40;69.46
30516;BME280;17297;54.022;10.760;2023-02-19T01:08:28;101404.50;;;7.42;69.21
30516;BME280;17297;54.022;10.760;2023-02-19T01:10:55;101404.50;;;7.42;69.37
30516;BME280;17297;54.022;10.760;2023-02-19T01:13:21;101407.19;;;7.42;69.31
30516;BME280;17297;54.022;10.760;2023-02-19T01:15:47;101402.66;;;7.42;69.24
30516;BME280;17297;54.022;10.760;2023-02-19T01:18:12;101407.19;;;7.42;69.39
30516;BME280;17297;54.022;10.760;2023-02-19T01:20:40;101406.19;;;7.43;69.49
30516;BME280;17297;54.022;10.760;2023-02-19T01:23:06;101406.00;;;7.44;69.59
30516;BME280;17297;54.022;10.760;2023-02-19T01:25:31;101408.69;;;7.44;69.46
30516;BME280;17297;54.022;10.760;2023-02-19T01:27:57;101407.72;;;7.45;69.27
30516;BME280;17297;54.022;10.760;2023-02-19T01:30:22;101404.19;;;7.45;69.46
30516;BME280;17297;54.022;10.760;2023-02-19T01:32:48;101402.34;;;7.45;69.33
30516;BME280;17297;54.022;10.760;2023-02-19T01:35:13;101402.34;;;7.45;69.33
30516;BME280;17297;54.022;10.760;2023-02-19T01:37:39;101405.88;;;7.46;69.35
30516;BME280;17297;54.022;10.760;2023-02-19T01:40:05;101400.50;;;7.46;69.37
30516;BME280;17297;54.022;10.760;2023-02-19T01:42:30;101406.69;;;7.46;69.53
30516;BME280;17297;54.022;10.760;2023-02-19T01:45:20;101400.34;;;7.47;69.63
30516;BME280;17297;54.022;10.760;2023-02-19T01:47:50;101401.34;;;7.46;69.32
30516;BME280;17297;54.022;10.760;2023-02-19T01:50:18;101406.69;;;7.46;69.58
30516;BME280;17297;54.022;10.760;2023-02-19T01:52:43;101405.69;;;7.47;69.42
30516;BME280;17297;54.022;10.760;2023-02-19T01:55:10;101410.91;;;7.49;69.53
30516;BME280;17297;54.022;10.760;2023-02-19T01:57:41;101412.75;;;7.48;69.61
30516;BME280;17297;54.022;10.760;2023-02-19T02:00:09;101408.06;;;7.50;69.71
30516;BME280;17297;54.022;10.760;2023-02-19T02:02:41;101405.38;;;7.50;69.50
30516;BME280;17297;54.022;10.760;2023-02-19T02:08:03;101409.06;;;7.49;69.50
30516;BME280;17297;54.022;10.760;2023-02-19T02:10:47;101412.44;;;7.51;69.59
30516;BME280;17297;54.022;10.760;2023-02-19T02:13:13;101411.44;;;7.52;69.49
30516;BME280;17297;54.022;10.760;2023-02-19T02:15:51;101412.44;;;7.51;69.62
30516;BME280;17297;54.022;10.760;2023-02-19T02:18:30;101413.09;;;7.53;69.68
30516;BME280;17297;54.022;10.760;2023-02-19T02:23:47;101414.94;;;7.53;69.72
30516;BME280;17297;54.022;10.760;2023-02-19T02:29:30;101405.06;;;7.53;69.66
30516;BME280;17297;54.022;10.760;2023-02-19T02:32:32;101405.06;;;7.53;69.78
30516;BME280;17297;54.022;10.760;2023-02-19T02:35:06;101410.41;;;7.53;69.68
30516;BME280;17297;54.022;10.760;2023-02-19T02:37:36;101408.44;;;7.55;69.66
30516;BME280;17297;54.022;10.760;2023-02-19T02:40:03;101404.09;;;7.54;69.68
30516;BME280;17297;54.022;10.760;2023-02-19T02:42:32;101402.38;;;7.53;69.56
30516;BME280;17297;54.022;10.760;2023-02-19T02:50:35;101402.38;;;7.53;69.54
30516;BME280;17297;54.022;10.760;2023-02-19T02:53:08;101393.69;;;7.51;69.67
30516;BME280;17297;54.022;10.760;2023-02-19T02:55:54;101388.47;;;7.50;69.64
30516;BME280;17297;54.022;10.760;2023-02-19T02:58:22;101390.31;;;7.49;69.77
30516;BME280;17297;54.022;10.760;2023-02-19T03:00:56;101393.19;;;7.48;69.56
30516;BME280;17297;54.022;10.760;2023-02-19T03:03:43;101387.13;;;7.46;69.57
30516;BME280;17297;54.022;10.760;2023-02-19T03:06:14;101378.56;;;7.42;69.37
30516;BME280;17297;54.022;10.760;2023-02-19T03:08:52;101384.91;;;7.41;69.54
30516;BME280;17297;54.022;10.760;2023-02-19T03:11:21;101385.06;;;7.39;69.27
30516;BME280;17297;54.022;10.760;2023-02-19T03:14:11;101379.19;;;7.36;69.20
30516;BME280;17297;54.022;10.760;2023-02-19T03:17:03;101384.88;;;7.33;69.38
30516;BME280;17297;54.022;10.760;2023-02-19T03:19:52;101375.31;;;7.30;69.26
30516;BME280;17297;54.022;10.760;2023-02-19T03:22:22;101379.13;;;7.28;69.22
30516;BME280;17297;54.022;10.760;2023-02-19T03:24:57;101370.56;;;7.24;69.13
30516;BME280;17297;54.022;10.760;2023-02-19T03:27:45;101375.22;;;7.22;69.27
30516;BME280;17297;54.022;10.760;2023-02-19T03:30:19;101384.44;;;7.20;69.14
30516;BME280;17297;54.022;10.760;2023-02-19T03:32:51;101381.06;;;7.17;69.09
30516;BME280;17297;54.022;10.760;2023-02-19T03:35:25;101384.06;;;7.14;69.28
30516;BME280;17297;54.022;10.760;2023-02-19T03:38:09;101386.88;;;7.13;69.32
30516;BME280;17297;54.022;10.760;2023-02-19T03:40:58;101388.03;;;7.10;69.04
30516;BME280;17297;54.022;10.760;2023-02-19T03:43:37;101393.69;;;7.07;69.12
30516;BME280;17297;54.022;10.760;2023-02-19T03:46:13;101400.84;;;7.07;69.04
30516;BME280;17297;54.022;10.760;2023-02-19T03:48:57;101394.84;;;7.05;68.97
30516;BME280;17297;54.022;10.760;2023-02-19T03:54:18;101400.50;;;7.02;69.11
30516;BME280;17297;54.022;10.760;2023-02-19T03:56:51;101397.97;;;7.00;69.13
30516;BME280;17297;54.022;10.760;2023-02-19T03:59:33;101399.97;;;6.98;69.09
30516;BME280;17297;54.022;10.760;2023-02-19T04:02:11;101410.66;;;6.98;68.87
30516;BME280;17297;54.022;10.760;2023-02-19T04:04:42;101416.16;;;6.97;68.84
30516;BME280;17297;54.022;10.760;2023-02-19T04:07:09;101420.69;;;6.96;68.82
30516;BME280;17297;54.022;10.760;2023-02-19T04:09:43;101422.50;;;6.96;68.81
30516;BME280;17297;54.022;10.760;2023-02-19T04:12:15;101422.66;;;6.94;68.72
30516;BME280;17297;54.022;10.760;2023-02-19T04:14:53;101429.00;;;6.93;68.80
30516;BME280;17297;54.022;10.760;2023-02-19T04:17:28;101432.81;;;6.90;68.94
30516;BME280;17297;54.022;10.760;2023-02-19T04:19:58;101434.66;;;6.90;68.79
30516;BME280;17297;54.022;10.760;2023-02-19T04:22:26;101445.34;;;6.90;68.87
30516;BME280;17297;54.022;10.760;2023-02-19T04:24:53;101454.38;;;6.89;68.75
30516;BME280;17297;54.022;10.760;2023-02-19T04:27:20;101462.53;;;6.87;68.74
30516;BME280;17297;54.022;10.760;2023-02-19T04:29:45;101451.19;;;6.85;68.70
30516;BME280;17297;54.022;10.760;2023-02-19T04:32:11;101461.72;;;6.87;68.95
30516;BME280;17297;54.022;10.760;2023-02-19T04:34:37;101459.19;;;6.85;68.82
30516;BME280;17297;54.022;10.760;2023-02-19T04:37:03;101472.56;;;6.85;68.73
30516;BME280;17297;54.022;10.760;2023-02-19T04:39:29;101473.53;;;6.84;68.97
30516;BME280;17297;54.022;10.760;2023-02-19T04:41:54;101472.56;;;6.85;68.90
30516;BME280;17297;54.022;10.760;2023-02-19T04:44:20;101477.91;;;6.85;68.79
30516;BME280;17297;54.022;10.760;2023-02-19T04:46:46;101481.56;;;6.84;68.75
30516;BME280;17297;54.022;10.760;2023-02-19T04:49:14;101485.25;;;6.83;68.81
30516;BME280;17297;54.022;10.760;2023-02-19T04:51:40;101477.34;;;6.82;68.69
30516;BME280;17297;54.022;10.760;2023-02-19T04:54:06;101487.09;;;6.83;68.64
30516;BME280;17297;54.022;10.760;2023-02-19T04:56:32;101488.06;;;6.82;68.55
30516;BME280;17297;54.022;10.760;2023-02-19T04:58:57;101486.25;;;6.82;68.71
30516;BME280;17297;54.022;10.760;2023-02-19T05:01:23;101490.72;;;6.82;68.64
30516;BME280;17297;54.022;10.760;2023-02-19T05:03:50;101490.06;;;6.80;68.77
30516;BME280;17297;54.022;10.760;2023-02-19T05:06:15;101488.22;;;6.80;68.68
30516;BME280;17297;54.022;10.760;2023-02-19T05:08:41;101497.25;;;6.79;68.71
30516;BME280;17297;54.022;10.760;2023-02-19T05:11:08;101497.25;;;6.79;68.60
30516;BME280;17297;54.022;10.760;2023-02-19T05:13:35;101500.88;;;6.78;68.75
30516;BME280;17297;54.022;10.760;2023-02-19T05:16:06;101500.22;;;6.76;68.63
30516;BME280;17297;54.022;10.760;2023-02-19T05:18:33;101502.03;;;6.76;68.75
30516;BME280;17297;54.022;10.760;2023-02-19T05:21:01;101496.84;;;6.74;68.57
30516;BME280;17297;54.022;10.760;2023-02-19T05:23:33;101506.69;;;6.74;68.59
30516;BME280;17297;54.022;10.760;2023-02-19T05:25:58;101506.84;;;6.72;68.51
30516;BME280;17297;54.022;10.760;2023-02-19T05:28:28;101509.66;;;6.70;68.58
30516;BME280;17297;54.022;10.760;2023-02-19T05:30:54;101507.00;;;6.70;68.57
30516;BME280;17297;54.022;10.760;2023-02-19T05:33:22;101502.63;;;6.69;68.73
30516;BME280;17297;54.022;10.760;2023-02-19T05:35:52;101508.13;;;6.68;68.61
30516;BME280;17297;54.022;10.760;2023-02-19T05:38:18;101511.81;;;6.67;68.62
30516;BME280;17297;54.022;10.760;2023-02-19T05:40:45;101522.50;;;6.67;68.65
30516;BME280;17297;54.022;10.760;2023-02-19T05:43:11;101523.47;;;6.66;68.68
30516;BME280;17297;54.022;10.760;2023-02-19T05:45:37;101537.84;;;6.65;68.63
30516;BME280;17297;54.022;10.760;2023-02-19T05:48:03;101537.97;;;6.63;68.64
30516;BME280;17297;54.022;10.760;2023-02-19T05:50:32;101536.28;;;6.62;68.61
30516;BME280;17297;54.022;10.760;2023-02-19T05:53:09;101530.25;;;6.60;68.62
30516;BME280;17297;54.022;10.760;2023-02-19T05:55:35;101540.94;;;6.60;68.43
30516;BME280;17297;54.022;10.760;2023-02-19T05:58:01;101549.13;;;6.59;68.42
30516;BME280;17297;54.022;10.760;2023-02-19T06:00:26;101543.91;;;6.57;68.48
30516;BME280;17297;54.022;10.760;2023-02-19T06:02:52;101553.75;;;6.57;68.59
30516;BME280;17297;54.022;10.760;2023-02-19T06:05:18;101546.91;;;6.54;68.48
30516;BME280;17297;54.022;10.760;2023-02-19T06:07:43;101555.06;;;6.53;68.36
30516;BME280;17297;54.022;10.760;2023-02-19T06:10:10;101553.38;;;6.52;68.44
30516;BME280;17297;54.022;10.760;2023-02-19T06:12:36;101566.75;;;6.52;68.35
30516;BME280;17297;54.022;10.760;2023-02-19T06:15:05;101568.72;;;6.50;68.36
30516;BME280;17297;54.022;10.760;2023-02-19T06:17:32;101573.22;;;6.49;68.56
30516;BME280;17297;54.022;10.760;2023-02-19T06:19:57;101575.91;;;6.49;68.59
30516;BME280;17297;54.022;10.760;2023-02-19T06:22:23;101578.69;;;6.47;68.46
30516;BME280;17297;54.022;10.760;2023-02-19T06:24:49;101592.94;;;6.48;68.38
30516;BME280;17297;54.022;10.760;2023-02-19T06:27:15;101598.41;;;6.46;68.33
30516;BME280;17297;54.022;10.760;2023-02-19T06:29:40;101601.25;;;6.45;68.51
30516;BME280;17297;54.022;10.760;2023-02-19T06:32:06;101599.41;;;6.45;68.45
30516;BME280;17297;54.022;10.760;2023-02-19T06:34:32;101601.25;;;6.45;68.51
30516;BME280;17297;54.022;10.760;2023-02-19T06:36:58;101600.38;;;6.44;68.31
30516;BME280;17297;54.022;10.760;2023-02-19T06:39:24;101600.53;;;6.43;68.60
30516;BME280;17297;54.022;10.760;2023-02-19T06:41:50;101601.25;;;6.45;68.58
30516;BME280;17297;54.022;10.760;2023-02-19T06:44:19;101602.09;;;6.45;68.46
30516;BME280;17297;54.022;10.760;2023-02-19T06:46:44;101608.25;;;6.46;68.49
30516;BME280;17297;54.022;10.760;2023-02-19T06:49:10;101610.94;;;6.46;68.44
30516;BME280;17297;54.022;10.760;2023-02-19T06:51:35;101617.13;;;6.46;68.56
30516;BME280;17297;54.022;10.760;2023-02-19T06:54:01;101631.19;;;6.48;68.47
30516;BME280;17297;54.022;10.760;2023-02-19T06:56:32;101628.22;;;6.52;68.58
30516;BME280;17297;54.022;10.760;2023-02-19T06:58:59;101632.59;;;6.53;68.46
30516;BME280;17297;54.022;10.760;2023-02-19T07:01:25;101651.00;;;6.56;68.61
30516;BME280;17297;54.022;10.760;2023-02-19T07:03:51;101654.38;;;6.58;68.47
30516;BME280;17297;54.022;10.760;2023-02-19T07:06:18;101659.56;;;6.59;68.58
30516;BME280;17297;54.022;10.760;2023-02-19T07:08:44;101661.13;;;6.62;68.41
30516;BME280;17297;54.022;10.760;2023-02-19T07:11:09;101668.84;;;6.65;68.62
30516;BME280;17297;54.022;10.760;2023-02-19T07:13:35;101676.59;;;6.68;68.45
30516;BME280;17297;54.022;10.760;2023-02-19T07:16:03;101684.16;;;6.72;68.57
30516;BME280;17297;54.022;10.760;2023-02-19T07:18:30;101685.41;;;6.78;68.56
30516;BME280;17297;54.022;10.760;2023-02-19T07:21:09;101688.34;;;6.85;68.67
30516;BME280;17297;54.022;10.760;2023-02-19T07:23:36;101686.94;;;6.90;68.56
30516;BME280;17297;54.022;10.760;2023-02-19T07:26:03;101683.38;;;7.00;68.55
30516;BME280;17297;54.022;10.760;2023-02-19T07:28:29;101689.53;;;7.10;68.66
30516;BME280;17297;54.022;10.760;2023-02-19T07:30:59;101687.38;;;7.23;68.57
30516;BME280;17297;54.022;10.760;2023-02-19T07:33:25;101699.28;;;7.38;68.70
30516;BME280;17297;54.022;10.760;2023-02-19T07:35:51;101706.41;;;7.48;68.44
30516;BME280;17297;54.022;10.760;2023-02-19T07:38:21;101702.97;;;7.55;68.18
30516;BME280;17297;54.022;10.760;2023-02-19T07:41:05;101701.66;;;7.59;68.00
30516;BME280;17297;54.022;10.760;2023-02-19T07:43:33;101720.13;;;7.62;67.79
30516;BME280;17297;54.022;10.760;2023-02-19T07:46:06;101721.81;;;7.63;67.80
30516;BME280;17297;54.022;10.760;2023-02-19T07:48:34;101729.09;;;7.71;67.92
30516;BME280;17297;54.022;10.760;2023-02-19T07:51:00;101738.19;;;7.78;67.92
30516;BME280;17297;54.022;10.760;2023-02-19T07:53:26;101729.56;;;7.84;67.75
30516;BME280;17297;54.022;10.760;2023-02-19T07:55:53;101735.63;;;7.86;67.58
30516;BME280;17297;54.022;10.760;2023-02-19T07:58:18;101739.31;;;7.85;67.43
30516;BME280;17297;54.022;10.760;2023-02-19T08:00:44;101747.66;;;7.82;67.10
30516;BME280;17297;54.022;10.760;2023-02-19T08:03:10;101761.34;;;7.79;67.29
30516;BME280;17297;54.022;10.760;2023-02-19T08:05:36;101761.34;;;7.79;67.26
30516;BME280;17297;54.022;10.760;2023-02-19T08:08:05;101766.41;;;7.82;67.12
30516;BME280;17297;54.022;10.760;2023-02-19T08:10:31;101769.63;;;7.86;67.12
30516;BME280;17297;54.022;10.760;2023-02-19T08:13:15;101779.84;;;7.91;67.06
30516;BME280;17297;54.022;10.760;2023-02-19T08:15:48;101788.59;;;7.93;67.12
30516;BME280;17297;54.022;10.760;2023-02-19T08:18:15;101782.94;;;7.96;67.27
30516;BME280;17297;54.022;10.760;2023-02-19T08:20:41;101791.38;;;8.01;67.17
30516;BME280;17297;54.022;10.760;2023-02-19T08:23:08;101781.03;;;8.06;66.94
30516;BME280;17297;54.022;10.760;2023-02-19T08:25:34;101781.56;;;8.09;66.85
30516;BME280;17297;54.022;10.760;2023-02-19T08:27:59;101792.16;;;8.11;66.90
30516;BME280;17297;54.022;10.760;2023-02-19T08:30:26;101795.38;;;8.15;66.71
30516;BME280;17297;54.022;10.760;2023-02-19T08:32:52;101795.25;;;8.16;66.61
30516;BME280;17297;54.022;10.760;2023-02-19T08:35:18;101798.59;;;8.18;66.87
30516;BME280;17297;54.022;10.760;2023-02-19T08:37:43;101784.56;;;8.24;66.63
30516;BME280;17297;54.022;10.760;2023-02-19T08:40:09;101787.66;;;8.29;66.64
30516;BME280;17297;54.022;10.760;2023-02-19T08:42:35;101793.38;;;8.34;66.40
30516;BME280;17297;54.022;10.760;2023-02-19T08:45:00;101798.44;;;8.38;66.57
30516;BME280;17297;54.022;10.760;2023-02-19T08:47:26;101807.09;;;8.41;66.53
30516;BME280;17297;54.022;10.760;2023-02-19T08:49:51;101805.22;;;8.42;66.26
30516;BME280;17297;54.022;10.760;2023-02-19T08:52:16;101811.13;;;8.45;66.39
30516;BME280;17297;54.022;10.760;2023-02-19T08:54:42;101798.56;;;8.46;66.36
30516;BME280;17297;54.022;10.760;2023-02-19T08:57:07;101804.63;;;8.48;66.36
30516;BME280;17297;54.022;10.760;2023-02-19T08:59:32;101815.03;;;8.51;66.19
30516;BME280;17297;54.022;10.760;2023-02-19T09:01:58;101815.88;;;8.51;66.04
30516;BME280;17297;54.022;10.760;2023-02-19T09:04:23;101835.88;;;8.57;66.13
30516;BME280;17297;54.022;10.760;2023-02-19T09:06:49;101834.88;;;8.58;65.98
30516;BME280;17297;54.022;10.760;2023-02-19T09:09:14;101828.50;;;8.59;66.00
30516;BME280;17297;54.022;10.760;2023-02-19T09:11:40;101836.41;;;8.61;65.83
30516;BME280;17297;54.022;10.760;2023-02-19T09:14:05;101839.09;;;8.61;65.84
30516;BME280;17297;54.022;10.760;2023-02-19T09:16:35;101847.81;;;8.63;65.85
30516;BME280;17297;54.022;10.760;2023-02-19T09:19:04;101837.78;;;8.65;65.54
30516;BME280;17297;54.022;10.760;2023-02-19T09:21:29;101853.03;;;8.64;65.63
30516;BME280;17297;54.022;10.760;2023-02-19T09:23:55;101860.91;;;8.66;65.41
30516;BME280;17297;54.022;10.760;2023-02-19T09:26:23;101872.53;;;8.66;65.33
30516;BME280;17297;54.022;10.760;2023-02-19T09:28:49;101883.25;;;8.66;65.41
30516;BME280;17297;54.022;10.760;2023-02-19T09:31:18;101879.88;;;8.64;65.25
30516;BME280;17297;54.022;10.760;2023-02-19T09:33:45;101889.59;;;8.65;65.44
30516;BME280;17297;54.022;10.760;2023-02-19T09:36:12;101882.38;;;8.66;65.47
30516;BME280;17297;54.022;10.760;2023-02-19T09:38:37;101890.28;;;8.67;65.29
30516;BME280;17297;54.022;10.760;2023-02-19T09:41:12;101891.13;;;8.68;65.13
30516;BME280;17297;54.022;10.760;2023-02-19T09:43:38;101882.94;;;8.69;65.18
30516;BME280;17297;54.022;10.760;2023-02-19T09:46:46;101876.56;;;8.70;65.30
30516;BME280;17297;54.022;10.760;2023-02-19T09:49:16;101888.00;;;8.72;65.26
30516;BME280;17297;54.022;10.760;2023-02-19T09:51:48;101894.03;;;8.74;65.21
30516;BME280;17297;54.022;10.760;2023-02-19T09:54:26;101909.16;;;8.75;65.16
30516;BME280;17297;54.022;10.760;2023-02-19T09:56:54;101908.84;;;8.78;64.94
30516;BME280;17297;54.022;10.760;2023-02-19T09:59:26;101903.50;;;8.78;64.79
30516;BME280;17297;54.022;10.760;2023-02-19T10:02:06;101900.81;;;8.78;64.95
30516;BME280;17297;54.022;10.760;2023-02-19T10:04:38;101906.84;;;8.81;64.60
30516;BME280;17297;54.022;10.760;2023-02-19T10:07:11;101911.25;;;8.82;64.54
30516;BME280;17297;54.022;10.760;2023-02-19T10:09:37;101909.22;;;8.84;64.51
30516;BME280;17297;54.022;10.760;2023-02-19T10:12:12;101917.97;;;8.86;64.43
30516;BME280;17297;54.022;10.760;2023-02-19T10:14:47;101923.16;;;8.87;64.25
30516;BME280;17297;54.022;10.760;2023-02-19T10:17:23;101920.66;;;8.86;64.25
30516;BME280;17297;54.022;10.760;2023-02-19T10:19:50;101936.28;;;8.90;64.13
30516;BME280;17297;54.022;10.760;2023-02-19T10:22:17;101952.09;;;8.93;64.14
30516;BME280;17297;54.022;10.760;2023-02-19T10:24:43;101955.47;;;8.95;64.00
30516;BME280;17297;54.022;10.760;2023-02-19T10:27:13;101963.53;;;8.95;63.87
30516;BME280;17297;54.022;10.760;2023-02-19T10:29:42;101973.09;;;8.98;63.43
30516;BME280;17297;54.022;10.760;2023-02-19T10:32:22;101980.31;;;8.97;63.43
30516;BME280;17297;54.022;10.760;2023-02-19T10:35:12;101985.13;;;8.94;63.13
30516;BME280;17297;54.022;10.760;2023-02-19T10:37:45;101993.47;;;8.91;62.93
30516;BME280;17297;54.022;10.760;2023-02-19T10:40:20;101999.72;;;8.91;62.98
30516;BME280;17297;54.022;10.760;2023-02-19T10:42:48;102011.81;;;8.95;63.07
30516;BME280;17297;54.022;10.760;2023-02-19T10:45:53;102014.34;;;8.97;62.76
30516;BME280;17297;54.022;10.760;2023-02-19T10:48:29;102012.22;;;9.00;62.79
30516;BME280;17297;54.022;10.760;2023-02-19T10:51:00;102013.75;;;9.03;62.64
30516;BME280;17297;54.022;10.760;2023-02-19T10:53:43;102020.81;;;9.04;62.43
30516;BME280;17297;54.022;10.760;2023-02-19T10:56:24;102020.81;;;9.04;62.32
30516;BME280;17297;54.022;10.760;2023-02-19T10:58:50;102034.06;;;9.06;62.03
30516;BME280;17297;54.022;10.760;2023-02-19T11:01:18;102019.69;;;9.07;62.06
30516;BME280;17297;54.022;10.760;2023-02-19T11:03:51;102019.50;;;9.08;61.80
30516;BME280;17297;54.022;10.760;2023-02-19T11:06:20;102026.56;;;9.09;61.95
30516;BME280;17297;54.022;10.760;2023-02-19T11:08:57;102023.03;;;9.09;61.81
30516;BME280;17297;54.022;10.760;2023-02-19T11:11:35;102030.78;;;9.12;61.59
30516;BME280;17297;54.022;10.760;2023-02-19T11:14:10;102037.16;;;9.11;61.42
30516;BME280;17297;54.022;10.760;2023-02-19T11:16:40;102043.38;;;9.11;61.42
30516;BME280;17297;54.022;10.760;2023-02-19T11:19:21;102041.38;;;9.13;61.63
30516;BME280;17297;54.022;10.760;2023-02-19T11:21:48;102033.16;;;9.15;61.37
30516;BME280;17297;54.022;10.760;2023-02-19T11:24:28;102032.03;;;9.17;61.23
30516;BME280;17297;54.022;10.760;2023-02-19T11:26:56;102033.69;;;9.18;61.07
30516;BME280;17297;54.022;10.760;2023-02-19T11:29:23;102032.72;;;9.19;60.92
30516;BME280;17297;54.022;10.760;2023-02-19T11:31:53;102041.44;;;9.21;60.97
30516;BME280;17297;54.022;10.760;2023-02-19T11:34:26;102051.22;;;9.22;60.82
30516;BME280;17297;54.022;10.760;2023-02-19T11:37:11;102044.84;;;9.23;60.96
30516;BME280;17297;54.022;10.760;2023-02-19T11:39:39;102043.81;;;9.24;60.85
30516;BME280;17297;54.022;10.760;2023-02-19T11:50:20;102046.69;;;9.23;60.10
30516;BME280;17297;54.022;10.760;2023-02-19T12:20:25;102068.09;;;9.33;58.97
30516;BME280;17297;54.022;10.760;2023-02-19T12:34:20;102079.47;;;9.44;58.81
30516;BME280;17297;54.022;10.760;2023-02-19T12:39:46;102083.69;;;9.47;58.14
30516;BME280;17297;54.022;10.760;2023-02-19T12:45:20;102081.66;;;9.49;58.28
30516;BME280;17297;54.022;10.760;2023-02-19T12:48:11;102079.69;;;9.51;58.02
30516;BME280;17297;54.022;10.760;2023-02-19T12:50:40;102080.53;;;9.52;57.87
30516;BME280;17297;54.022;10.760;2023-02-19T12:55:50;102081.06;;;9.55;57.86
30516;BME280;17297;54.022;10.760;2023-02-19T12:58:27;102079.06;;;9.57;57.93
30516;BME280;17297;54.022;10.760;2023-02-19T13:00:54;102089.50;;;9.60;57.98
30516;BME280;17297;54.022;10.760;2023-02-19T13:03:46;102087.66;;;9.61;57.99
30516;BME280;17297;54.022;10.760;2023-02-19T13:06:34;102078.44;;;9.63;57.99
30516;BME280;17297;54.022;10.760;2023-02-19T13:09:18;102082.69;;;9.66;57.98
30516;BME280;17297;54.022;10.760;2023-02-19T13:11:49;102071.75;;;9.67;57.89
30516;BME280;17297;54.022;10.760;2023-02-19T13:14:28;102075.16;;;9.69;57.89
30516;BME280;17297;54.022;10.760;2023-02-19T13:17:29;102061.72;;;9.69;57.98
30516;BME280;17297;54.022;10.760;2023-02-19T13:20:26;102063.38;;;9.70;58.07
30516;BME280;17297;54.022;10.760;2023-02-19T13:36:35;102039.22;;;9.70;57.60
30516;BME280;17297;54.022;10.760;2023-02-19T13:39:04;102041.06;;;9.70;57.61
30516;BME280;17297;54.022;10.760;2023-02-19T13:41:39;102038.19;;;9.71;57.58
30516;BME280;17297;54.022;10.760;2023-02-19T13:44:15;102031.00;;;9.72;57.59
30516;BME280;17297;54.022;10.760;2023-02-19T13:46:43;102026.47;;;9.73;57.70
30516;BME280;17297;54.022;10.760;2023-02-19T13:51:55;102037.22;;;9.73;57.36
30516;BME280;17297;54.022;10.760;2023-02-19T13:54:25;102030.84;;;9.74;57.53
30516;BME280;17297;54.022;10.760;2023-02-19T13:57:29;102030.84;;;9.74;57.74
30516;BME280;17297;54.022;10.760;2023-02-19T13:59:56;102039.91;;;9.73;57.41
30516;BME280;17297;54.022;10.760;2023-02-19T14:02:27;102047.28;;;9.70;57.44
30516;BME280;17297;54.022;10.760;2023-02-19T14:05:00;102043.75;;;9.70;57.17
30516;BME280;17297;54.022;10.760;2023-02-19T14:09:52;102057.88;;;9.72;57.23
30516;BME280;17297;54.022;10.760;2023-02-19T14:12:20;102062.38;;;9.71;57.02
30516;BME280;17297;54.022;10.760;2023-02-19T14:17:25;102060.56;;;9.72;57.31
30516;BME280;17297;54.022;10.760;2023-02-19T14:20:02;102057.88;;;9.72;57.27
30516;BME280;17297;54.022;10.760;2023-02-19T14:28:04;102068.47;;;9.74;57.14
30516;BME280;17297;54.022;10.760;2023-02-19T14:30:32;102058.53;;;9.74;56.98
30516;BME280;17297;54.022;10.760;2023-02-19T14:33:00;102057.72;;;9.74;56.94
30516;BME280;17297;54.022;10.760;2023-02-19T14:35:33;102045.28;;;9.73;57.05
30516;BME280;17297;54.022;10.760;2023-02-19T14:38:00;102043.44;;;9.73;57.08
30516;BME280;17297;54.022;10.760;2023-02-19T14:40:35;102039.91;;;9.73;56.96
30516;BME280;17297;54.022;10.760;2023-02-19T14:43:04;102029.16;;;9.73;56.84
30516;BME280;17297;54.022;10.760;2023-02-19T14:45:38;102032.81;;;9.71;56.96
30516;BME280;17297;54.022;10.760;2023-02-19T14:48:06;102031.16;;;9.70;56.83
30516;BME280;17297;54.022;10.760;2023-02-19T14:50:37;102021.41;;;9.69;56.75